createdAt,value
2018-07-23T00:01:53.719Z,29.67
2018-07-23T00:04:22.032Z,29.20
2018-07-23T00:06:50.260Z,27.37
2018-07-23T00:09:18.447Z,26.20
2018-07-23T00:11:46.655Z,21.80
2018-07-23T00:14:14.866Z,22.47
2018-07-23T00:16:43.206Z,22.53
2018-07-23T00:19:11.436Z,23.40
2018-07-23T00:21:39.601Z,24.13
2018-07-23T00:24:07.870Z,24.87
2018-07-23T00:26:36.409Z,26.40
2018-07-23T00:29:04.678Z,23.63
2018-07-23T00:31:32.835Z,27.13
2018-07-23T00:34:01.013Z,29.67
2018-07-23T00:36:29.218Z,30.20
2018-07-23T00:38:57.380Z,29.90
2018-07-23T00:41:25.556Z,30.10
2018-07-23T00:43:53.727Z,30.43
2018-07-23T00:46:21.883Z,26.90
2018-07-23T00:48:50.033Z,25.47
2018-07-23T00:51:19.361Z,29.87
2018-07-23T00:53:47.526Z,31.80
2018-07-23T00:56:15.723Z,34.00
2018-07-23T00:58:43.863Z,34.67
2018-07-23T01:01:12.072Z,36.97
2018-07-23T01:03:40.225Z,34.60
2018-07-23T01:06:08.383Z,34.30
2018-07-23T01:08:36.591Z,34.70
2018-07-23T01:11:04.887Z,38.73
2018-07-23T01:13:33.039Z,39.97
2018-07-23T01:16:01.324Z,39.20
2018-07-23T01:18:29.473Z,38.60
2018-07-23T01:20:57.664Z,43.07
2018-07-23T01:23:25.848Z,39.63
2018-07-23T01:25:54.024Z,40.33
2018-07-23T01:28:22.211Z,39.07
2018-07-23T01:30:50.408Z,32.83
2018-07-23T01:33:18.563Z,32.63
2018-07-23T01:35:46.712Z,32.47
2018-07-23T01:38:14.859Z,35.03
2018-07-23T01:40:43.023Z,37.27
2018-07-23T01:43:11.156Z,38.63
2018-07-23T01:45:39.375Z,36.70
2018-07-23T01:48:07.598Z,40.73
2018-07-23T01:50:35.735Z,43.47
2018-07-23T01:53:03.876Z,39.77
2018-07-23T01:55:32.021Z,45.17
2018-07-23T01:58:00.374Z,47.43
2018-07-23T02:00:28.514Z,49.23
2018-07-23T02:02:56.696Z,49.77
2018-07-23T02:05:24.871Z,52.63
2018-07-23T02:07:53.024Z,51.97
2018-07-23T02:10:21.234Z,54.87
2018-07-23T02:12:49.510Z,56.03
2018-07-23T02:15:17.710Z,55.03
2018-07-23T02:17:45.848Z,55.73
2018-07-23T02:20:14.065Z,51.47
2018-07-23T02:22:42.307Z,55.70
2018-07-23T02:25:10.539Z,51.93
2018-07-23T02:27:38.884Z,48.33
2018-07-23T02:30:07.880Z,46.00
2018-07-23T02:32:36.178Z,44.07
2018-07-23T02:35:04.452Z,43.50
2018-07-23T02:37:32.728Z,41.70
2018-07-23T02:40:01.052Z,38.67
2018-07-23T02:42:29.312Z,39.00
2018-07-23T02:44:57.549Z,42.43
2018-07-23T02:47:25.742Z,47.97
2018-07-23T02:49:53.959Z,49.77
2018-07-23T02:52:22.164Z,51.07
2018-07-23T02:54:50.506Z,49.57
2018-07-23T02:57:18.686Z,47.17
2018-07-23T02:59:46.896Z,43.93
2018-07-23T03:02:15.051Z,41.97
2018-07-23T03:04:43.232Z,40.17
2018-07-23T03:07:11.604Z,38.90
2018-07-23T03:09:39.775Z,35.90
2018-07-23T03:12:08.591Z,32.87
2018-07-23T03:14:36.829Z,32.27
2018-07-23T03:17:04.964Z,34.33
2018-07-23T03:19:33.139Z,36.10
2018-07-23T03:22:01.371Z,35.57
2018-07-23T03:24:29.521Z,37.20
2018-07-23T03:26:58.153Z,36.27
2018-07-23T03:29:26.300Z,36.33
2018-07-23T03:31:54.435Z,36.20
2018-07-23T03:34:22.583Z,32.80
2018-07-23T03:36:50.716Z,34.93
2018-07-23T03:39:18.899Z,36.00
2018-07-23T03:41:47.060Z,35.80
2018-07-23T03:44:15.244Z,35.83
2018-07-23T03:46:43.502Z,38.43
2018-07-23T03:49:11.684Z,38.40
2018-07-23T03:51:39.786Z,36.67
2018-07-23T03:54:07.951Z,35.17
2018-07-23T03:56:36.710Z,34.00
2018-07-23T03:59:04.829Z,33.23
2018-07-23T04:01:32.968Z,36.07
2018-07-23T04:04:01.095Z,34.73
2018-07-23T04:06:29.264Z,35.23
2018-07-23T04:08:57.432Z,33.50
2018-07-23T04:11:25.383Z,33.43
2018-07-23T04:13:53.515Z,34.33
2018-07-23T04:16:21.708Z,36.47
2018-07-23T04:18:49.883Z,35.43
2018-07-23T04:21:18.079Z,28.90
2018-07-23T04:23:46.323Z,29.73
2018-07-23T04:26:15.344Z,32.07
2018-07-23T04:28:43.606Z,34.37
2018-07-23T04:31:11.805Z,36.77
2018-07-23T04:33:40.023Z,34.53
2018-07-23T04:36:08.223Z,31.27
2018-07-23T04:38:36.457Z,30.83
2018-07-23T04:41:04.644Z,31.23
2018-07-23T04:43:32.826Z,31.70
2018-07-23T04:46:01.026Z,31.97
2018-07-23T04:48:29.215Z,30.67
2018-07-23T04:50:57.431Z,31.57
2018-07-23T04:53:25.620Z,28.60
2018-07-23T04:55:53.917Z,29.43
2018-07-23T04:58:22.106Z,28.13
2018-07-23T05:00:50.303Z,26.37
2018-07-23T05:03:18.493Z,24.53
2018-07-23T05:05:46.716Z,21.47
2018-07-23T05:08:14.951Z,19.10
2018-07-23T05:10:43.139Z,16.93
2018-07-23T05:13:11.315Z,15.77
2018-07-23T05:15:39.508Z,15.03
2018-07-23T05:18:07.728Z,14.70
2018-07-23T05:20:36.846Z,15.33
2018-07-23T05:23:05.083Z,16.00
2018-07-23T05:25:33.343Z,16.43
2018-07-23T05:28:01.535Z,15.37
2018-07-23T05:30:29.726Z,15.83
2018-07-23T05:32:57.964Z,14.50
2018-07-23T05:35:26.140Z,13.10
2018-07-23T05:37:54.316Z,13.77
2018-07-23T05:40:22.523Z,15.33
2018-07-23T05:42:50.720Z,14.53
2018-07-23T05:45:19.318Z,13.87
2018-07-23T05:47:47.507Z,13.70
2018-07-23T05:50:15.705Z,13.57
2018-07-23T05:52:43.892Z,12.60
2018-07-23T05:55:12.083Z,13.87
2018-07-23T05:57:40.293Z,12.97
2018-07-23T06:00:08.582Z,13.57
2018-07-23T06:02:36.751Z,12.87
2018-07-23T06:05:04.983Z,12.47
2018-07-23T06:07:33.274Z,12.90
2018-07-23T06:10:01.503Z,12.10
2018-07-23T06:12:29.707Z,12.27
2018-07-23T06:14:57.915Z,11.43
2018-07-23T06:17:26.168Z,11.97
2018-07-23T06:19:54.314Z,12.60
2018-07-23T06:22:22.464Z,13.20
2018-07-23T06:24:50.603Z,12.90
2018-07-23T06:27:18.744Z,13.43
2018-07-23T06:29:46.907Z,12.13
2018-07-23T06:32:15.196Z,12.13
2018-07-23T06:34:43.357Z,12.10
2018-07-23T06:37:11.533Z,12.00
2018-07-23T06:39:39.716Z,11.50
2018-07-23T06:42:07.890Z,12.37
2018-07-23T06:44:36.238Z,12.33
2018-07-23T06:47:04.583Z,11.63
2018-07-23T06:49:32.714Z,11.60
2018-07-23T06:52:00.921Z,12.50
2018-07-23T06:54:29.066Z,11.97
2018-07-23T06:56:57.233Z,12.30
2018-07-23T06:59:25.443Z,12.07
2018-07-23T07:01:53.670Z,11.27
2018-07-23T07:04:21.891Z,12.57
2018-07-23T07:06:50.051Z,11.77
2018-07-23T07:09:18.367Z,11.53
2018-07-23T07:11:46.534Z,11.67
2018-07-23T07:14:14.700Z,11.13
2018-07-23T07:16:42.925Z,12.03
2018-07-23T07:19:11.103Z,10.57
2018-07-23T07:21:39.337Z,11.07
2018-07-23T07:24:07.994Z,10.70
2018-07-23T07:26:36.207Z,9.90
2018-07-23T07:29:04.629Z,9.77
2018-07-23T07:31:32.933Z,9.63
2018-07-23T07:34:01.237Z,10.57
2018-07-23T07:36:29.464Z,10.23
2018-07-23T07:38:57.705Z,9.60
2018-07-23T07:41:25.943Z,9.13
2018-07-23T07:43:54.168Z,9.03
2018-07-23T07:46:22.489Z,9.60
2018-07-23T07:48:50.619Z,9.67
2018-07-23T07:51:18.896Z,8.90
2018-07-23T07:53:47.201Z,8.83
2018-07-23T07:56:15.380Z,9.20
2018-07-23T07:58:43.583Z,9.03
2018-07-23T08:01:11.812Z,9.07
2018-07-23T08:03:40.004Z,8.37
2018-07-23T08:06:08.444Z,8.63
2018-07-23T08:08:36.673Z,8.57
2018-07-23T08:11:04.923Z,9.30
2018-07-23T08:13:33.103Z,8.60
2018-07-23T08:16:01.341Z,8.57
2018-07-23T08:18:29.532Z,8.80
2018-07-23T08:20:57.750Z,8.07
2018-07-23T08:23:25.956Z,8.87
2018-07-23T08:25:54.202Z,9.03
2018-07-23T08:28:22.421Z,9.10
2018-07-23T08:30:50.660Z,7.90
2018-07-23T08:33:18.858Z,8.27
2018-07-23T08:35:47.099Z,7.43
2018-07-23T08:38:15.282Z,7.53
2018-07-23T08:40:43.512Z,7.77
2018-07-23T08:43:11.933Z,8.73
2018-07-23T08:45:40.039Z,8.03
2018-07-23T08:48:08.259Z,7.10
2018-07-23T08:50:36.339Z,7.73
2018-07-23T08:53:04.537Z,7.50
2018-07-23T08:55:32.706Z,8.33
2018-07-23T08:58:00.970Z,8.30
2018-07-23T09:00:29.281Z,7.63
2018-07-23T09:02:57.900Z,7.80
2018-07-23T09:05:26.160Z,8.23
2018-07-23T09:07:54.355Z,7.57
2018-07-23T09:10:22.554Z,7.57
2018-07-23T09:12:50.800Z,7.83
2018-07-23T09:15:18.990Z,7.90
2018-07-23T09:17:47.323Z,6.77
2018-07-23T09:20:15.534Z,7.47
2018-07-23T09:22:43.707Z,7.57
2018-07-23T09:25:11.905Z,7.83
2018-07-23T09:27:40.170Z,8.47
2018-07-23T09:30:12.698Z,7.23
2018-07-23T09:32:40.854Z,7.30
2018-07-23T09:35:09.136Z,7.17
2018-07-23T09:37:37.373Z,7.37
2018-07-23T09:40:06.498Z,7.07
2018-07-23T09:42:34.761Z,7.60
2018-07-23T09:45:03.910Z,7.70
2018-07-23T09:47:32.093Z,8.00
2018-07-23T09:50:00.342Z,7.27
2018-07-23T09:52:28.581Z,8.03
2018-07-23T09:54:56.760Z,8.63
2018-07-23T09:57:24.953Z,7.73
2018-07-23T09:59:53.142Z,7.00
2018-07-23T10:02:21.343Z,7.00
2018-07-23T10:04:49.527Z,8.20
2018-07-23T10:07:17.800Z,7.40
2018-07-23T10:09:46.141Z,7.77
2018-07-23T10:12:14.363Z,7.13
2018-07-23T10:14:42.587Z,7.67
2018-07-23T10:17:10.780Z,7.13
2018-07-23T10:19:38.971Z,7.17
2018-07-23T10:22:07.157Z,7.90
2018-07-23T10:24:35.303Z,7.77
2018-07-23T10:27:04.621Z,6.60
2018-07-23T10:29:32.812Z,6.53
2018-07-23T10:32:00.961Z,7.60
2018-07-23T10:34:29.177Z,7.17
2018-07-23T10:36:57.327Z,7.20
2018-07-23T10:39:25.480Z,6.87
2018-07-23T10:41:53.652Z,7.00
2018-07-23T10:44:21.792Z,6.80
2018-07-23T10:46:49.948Z,6.73
2018-07-23T10:49:18.124Z,6.40
2018-07-23T10:51:46.363Z,6.90
2018-07-23T10:54:14.559Z,6.70
2018-07-23T10:56:42.738Z,6.87
2018-07-23T10:59:11.008Z,7.53
2018-07-23T11:01:39.118Z,6.83
2018-07-23T11:04:07.329Z,6.67
2018-07-23T11:06:35.646Z,7.10
2018-07-23T11:09:05.869Z,7.07
2018-07-23T11:11:34.011Z,6.40
2018-07-23T11:14:02.209Z,6.13
2018-07-23T11:16:30.391Z,6.13
2018-07-23T11:18:59.159Z,6.20
2018-07-23T11:21:27.531Z,6.50
2018-07-23T11:23:55.765Z,5.97
2018-07-23T11:26:23.960Z,6.20
2018-07-23T11:28:52.082Z,6.27
2018-07-23T11:31:20.351Z,6.23
2018-07-23T11:33:48.500Z,5.83
2018-07-23T11:36:16.670Z,5.77
2018-07-23T11:38:44.962Z,6.13
2018-07-23T11:41:13.107Z,6.60
2018-07-23T11:43:41.410Z,5.67
2018-07-23T11:46:16.624Z,5.90
2018-07-23T11:48:37.755Z,5.67
2018-07-23T11:51:05.944Z,5.47
2018-07-23T11:53:34.141Z,6.20
2018-07-23T11:56:02.385Z,5.43
2018-07-23T11:58:30.548Z,5.57
2018-07-23T12:00:58.751Z,5.30
2018-07-23T12:03:26.924Z,6.17
2018-07-23T12:05:55.080Z,6.87
2018-07-23T12:08:23.246Z,6.40
2018-07-23T12:10:51.419Z,6.93
2018-07-23T12:13:19.608Z,6.47
2018-07-23T12:15:47.754Z,6.47
2018-07-23T12:18:15.908Z,6.57
2018-07-23T12:20:44.201Z,6.27
2018-07-23T12:23:12.444Z,6.40
2018-07-23T12:25:40.668Z,6.80
2018-07-23T12:28:08.906Z,6.67
2018-07-23T12:30:37.128Z,6.57
2018-07-23T12:33:06.046Z,6.30
2018-07-23T12:35:34.355Z,6.80
2018-07-23T12:38:02.670Z,6.27
2018-07-23T12:40:30.874Z,6.17
2018-07-23T12:42:59.907Z,6.43
2018-07-23T12:45:28.126Z,5.90
2018-07-23T12:47:56.337Z,6.00
2018-07-23T12:50:24.506Z,5.93
2018-07-23T12:52:52.695Z,6.23
2018-07-23T12:55:20.884Z,5.97
2018-07-23T12:57:49.067Z,6.87
2018-07-23T13:00:17.308Z,6.50
2018-07-23T13:02:45.513Z,6.27
2018-07-23T13:05:13.676Z,6.13
2018-07-23T13:07:41.871Z,5.90
2018-07-23T13:10:10.095Z,5.87
2018-07-23T13:12:38.291Z,6.70
2018-07-23T13:15:06.488Z,6.13
2018-07-23T13:17:34.663Z,6.00
2018-07-23T13:20:02.915Z,6.10
2018-07-23T13:22:31.141Z,6.10
2018-07-23T13:24:59.760Z,6.00
2018-07-23T13:27:27.937Z,6.17
2018-07-23T13:29:56.167Z,5.60
2018-07-23T13:32:24.387Z,5.57
2018-07-23T13:34:52.542Z,5.20
2018-07-23T13:37:20.849Z,5.70
2018-07-23T13:39:49.089Z,5.80
2018-07-23T13:42:17.275Z,5.80
2018-07-23T13:44:45.576Z,5.80
2018-07-23T13:47:13.830Z,5.67
2018-07-23T13:49:42.247Z,5.93
2018-07-23T13:52:10.438Z,5.67
2018-07-23T13:54:38.642Z,6.17
2018-07-23T13:57:06.840Z,6.53
2018-07-23T13:59:35.035Z,5.40
2018-07-23T14:02:03.223Z,5.80
2018-07-23T14:04:31.575Z,5.90
2018-07-23T14:06:59.803Z,6.10
2018-07-23T14:09:28.023Z,6.20
2018-07-23T14:11:56.299Z,5.77
2018-07-23T14:14:24.494Z,6.23
2018-07-23T14:16:52.704Z,6.93
2018-07-23T14:19:20.919Z,6.27
2018-07-23T14:21:49.119Z,5.50
2018-07-23T14:24:17.317Z,5.43
2018-07-23T14:26:45.583Z,5.20
2018-07-23T14:29:13.802Z,5.77
2018-07-23T14:31:42.557Z,5.37
2018-07-23T14:34:10.780Z,5.43
2018-07-23T14:36:39.081Z,5.97
2018-07-23T14:39:09.839Z,5.50
2018-07-23T14:41:38.314Z,5.13
2018-07-23T14:44:06.562Z,6.00
2018-07-23T14:46:36.149Z,5.40
2018-07-23T14:49:04.363Z,5.33
2018-07-23T14:51:32.590Z,5.70
2018-07-23T14:54:00.911Z,5.83
2018-07-23T14:56:29.303Z,5.60
2018-07-23T14:58:57.530Z,6.03
2018-07-23T15:01:25.725Z,5.47
2018-07-23T15:03:54.408Z,5.43
2018-07-23T15:06:22.612Z,5.07
2018-07-23T15:08:50.850Z,6.13
2018-07-23T15:11:19.105Z,5.70
2018-07-23T15:13:48.503Z,6.30
2018-07-23T15:16:16.805Z,5.73
2018-07-23T15:18:45.059Z,5.60
2018-07-23T15:21:13.498Z,5.73
2018-07-23T15:23:41.837Z,5.80
2018-07-23T15:26:10.032Z,5.50
2018-07-23T15:28:38.254Z,5.73
2018-07-23T15:31:06.937Z,5.70
2018-07-23T15:33:35.127Z,5.37
2018-07-23T15:36:03.272Z,5.93
2018-07-23T15:38:31.540Z,6.00
2018-07-23T15:40:59.768Z,6.27
2018-07-23T15:43:27.944Z,5.97
2018-07-23T15:45:56.461Z,6.30
2018-07-23T15:48:25.111Z,6.50
2018-07-23T15:50:53.484Z,6.07
2018-07-23T15:53:21.671Z,5.53
2018-07-23T15:55:49.840Z,6.17
2018-07-23T15:58:18.090Z,6.30
2018-07-23T16:00:46.272Z,6.73
2018-07-23T16:03:14.457Z,6.27
2018-07-23T16:05:42.643Z,6.27
2018-07-23T16:08:10.779Z,6.53
2018-07-23T16:10:38.939Z,6.30
2018-07-23T16:13:07.051Z,6.03
2018-07-23T16:15:35.203Z,6.20
2018-07-23T16:18:03.379Z,6.27
2018-07-23T16:20:31.570Z,6.23
2018-07-23T16:22:59.731Z,5.90
2018-07-23T16:25:27.918Z,5.93
2018-07-23T16:27:56.051Z,6.37
2018-07-23T16:30:24.377Z,6.27
2018-07-23T16:32:52.759Z,6.23
2018-07-23T16:35:21.136Z,5.90
2018-07-23T16:37:49.357Z,5.63
2018-07-23T16:40:17.521Z,5.37
2018-07-23T16:42:45.880Z,5.47
2018-07-23T16:45:14.263Z,6.20
2018-07-23T16:47:42.411Z,5.50
2018-07-23T16:50:10.542Z,5.30
2018-07-23T16:52:38.727Z,5.93
2018-07-23T16:55:06.871Z,6.23
2018-07-23T16:57:35.059Z,5.70
2018-07-23T17:00:03.500Z,5.90
2018-07-23T17:02:31.805Z,5.03
2018-07-23T17:04:59.980Z,5.23
2018-07-23T17:07:28.144Z,5.60
2018-07-23T17:09:56.282Z,5.60
2018-07-23T17:12:24.463Z,6.13
2018-07-23T17:14:52.791Z,5.43
2018-07-23T17:17:20.972Z,6.27
2018-07-23T17:19:49.264Z,5.90
2018-07-23T17:22:17.705Z,6.10
2018-07-23T17:24:45.886Z,6.00
2018-07-23T17:27:14.074Z,5.90
2018-07-23T17:29:42.332Z,5.57
2018-07-23T17:32:10.588Z,6.20
2018-07-23T17:34:38.828Z,5.57
2018-07-23T17:37:06.994Z,5.37
2018-07-23T17:39:35.200Z,5.90
2018-07-23T17:42:03.468Z,6.10
2018-07-23T17:44:31.671Z,5.90
2018-07-23T17:46:59.885Z,6.17
2018-07-23T17:49:28.228Z,6.27
2018-07-23T17:51:57.335Z,6.13
2018-07-23T17:54:25.575Z,5.60
2018-07-23T17:56:53.833Z,5.90
2018-07-23T17:59:22.044Z,5.70
2018-07-23T18:01:50.438Z,5.73
2018-07-23T18:04:18.624Z,5.70
2018-07-23T18:06:46.895Z,5.87
2018-07-23T18:09:15.351Z,5.03
2018-07-23T18:11:43.716Z,5.70
2018-07-23T18:14:11.890Z,5.50
2018-07-23T18:16:40.456Z,5.60
2018-07-23T18:19:08.688Z,5.47
2018-07-23T18:21:36.875Z,5.13
2018-07-23T18:24:05.141Z,4.60
2018-07-23T18:26:33.534Z,4.50
2018-07-23T18:29:01.834Z,5.00
2018-07-23T18:31:30.102Z,4.77
2018-07-23T18:33:58.317Z,4.70
2018-07-23T18:36:26.491Z,4.70
2018-07-23T18:38:54.695Z,4.93
2018-07-23T18:41:22.883Z,4.60
2018-07-23T18:43:51.064Z,5.23
2018-07-23T18:46:19.235Z,4.97
2018-07-23T18:49:24.795Z,5.13
2018-07-23T18:51:53.783Z,4.80
2018-07-23T18:54:23.095Z,4.67
2018-07-23T18:56:53.082Z,4.90
2018-07-23T18:59:21.250Z,5.13
2018-07-23T19:01:50.470Z,5.53
2018-07-23T19:04:18.750Z,5.97
2018-07-23T19:06:47.123Z,5.17
2018-07-23T19:09:16.640Z,4.70
2018-07-23T19:11:46.146Z,5.47
2018-07-23T19:14:14.915Z,5.13
2018-07-23T19:16:43.566Z,6.97
2018-07-23T19:19:11.870Z,7.20
2018-07-23T19:21:40.155Z,5.50
2018-07-23T19:24:08.346Z,5.50
2018-07-23T19:26:36.554Z,5.43
2018-07-23T19:29:04.799Z,8.03
2018-07-23T19:31:32.924Z,6.10
2018-07-23T19:34:02.511Z,6.10
2018-07-23T19:36:30.921Z,5.43
2018-07-23T19:38:59.294Z,6.23
2018-07-23T19:41:27.995Z,5.90
2018-07-23T19:43:56.370Z,6.37
2018-07-23T19:46:24.544Z,6.43
2018-07-23T19:48:52.967Z,6.40
2018-07-23T19:51:21.145Z,6.37
2018-07-23T19:53:49.358Z,6.57
2018-07-23T19:56:17.842Z,6.60
2018-07-23T19:58:46.115Z,6.73
2018-07-23T20:01:14.283Z,6.90
2018-07-23T20:03:42.449Z,7.07
2018-07-23T20:06:10.607Z,7.03
2018-07-23T20:08:38.826Z,6.73
2018-07-23T20:11:07.287Z,6.90
2018-07-23T20:13:35.422Z,6.87
2018-07-23T20:16:03.615Z,7.37
2018-07-23T20:18:31.766Z,6.93
2018-07-23T20:20:59.959Z,7.37
2018-07-23T20:23:28.050Z,7.13
2018-07-23T20:25:56.243Z,6.97
2018-07-23T20:28:24.421Z,7.23
2018-07-23T20:30:52.570Z,7.90
2018-07-23T20:33:20.793Z,8.30
2018-07-23T20:35:49.012Z,6.90
2018-07-23T20:38:17.203Z,7.23
2018-07-23T20:40:45.784Z,7.47
2018-07-23T20:43:13.930Z,7.27
2018-07-23T20:45:42.110Z,7.50
2018-07-23T20:48:10.255Z,7.30
2018-07-23T20:50:38.420Z,7.90
2018-07-23T20:53:06.593Z,7.47
2018-07-23T20:55:34.725Z,7.70
2018-07-23T20:58:02.972Z,7.20
2018-07-23T21:00:31.175Z,7.73
2018-07-23T21:02:59.292Z,7.17
2018-07-23T21:05:27.446Z,8.03
2018-07-23T21:07:55.711Z,8.23
2018-07-23T21:10:23.630Z,8.10
2018-07-23T21:12:51.805Z,8.40
2018-07-23T21:15:19.948Z,8.77
2018-07-23T21:17:48.103Z,8.43
2018-07-23T21:20:16.289Z,8.50
2018-07-23T21:22:44.439Z,8.73
2018-07-23T21:25:12.595Z,9.13
2018-07-23T21:27:40.779Z,8.70
2018-07-23T21:30:08.939Z,8.43
2018-07-23T21:32:37.099Z,8.13
2018-07-23T21:35:05.870Z,8.53
2018-07-23T21:37:34.509Z,9.13
2018-07-23T21:40:02.794Z,8.60
2018-07-23T21:42:31.040Z,8.73
2018-07-23T21:44:59.191Z,8.57
2018-07-23T21:47:27.366Z,8.43
2018-07-23T21:49:55.522Z,8.33
2018-07-23T21:52:23.821Z,8.63
2018-07-23T21:54:51.944Z,8.70
2018-07-23T21:57:20.079Z,8.50
2018-07-23T21:59:48.307Z,7.93
2018-07-23T22:02:16.457Z,8.50
2018-07-23T22:04:44.587Z,7.90
2018-07-23T22:07:12.718Z,8.40
2018-07-23T22:09:41.096Z,8.90
2018-07-23T22:12:09.247Z,8.13
2018-07-23T22:14:38.014Z,8.67
2018-07-23T22:17:06.175Z,8.40
2018-07-23T22:19:34.339Z,8.57
2018-07-23T22:22:02.526Z,8.47
2018-07-23T22:24:31.046Z,7.83
2018-07-23T22:26:59.259Z,8.37
2018-07-23T22:29:27.460Z,8.50
2018-07-23T22:31:55.629Z,9.10
2018-07-23T22:34:23.822Z,8.77
2018-07-23T22:36:51.998Z,9.37
2018-07-23T22:39:20.165Z,9.23
2018-07-23T22:41:48.323Z,9.43
2018-07-23T22:44:16.479Z,9.37
2018-07-23T22:46:44.663Z,9.13
2018-07-23T22:49:12.882Z,9.17
2018-07-23T22:51:41.050Z,9.50
2018-07-23T22:54:09.227Z,9.77
2018-07-23T22:56:37.548Z,9.60
2018-07-23T22:59:05.696Z,9.60
2018-07-23T23:01:33.863Z,9.30
2018-07-23T23:04:02.046Z,9.57
2018-07-23T23:06:30.215Z,10.17
2018-07-23T23:08:58.418Z,8.90
2018-07-23T23:11:26.630Z,9.63
2018-07-23T23:13:54.803Z,9.33
2018-07-23T23:16:22.975Z,9.53
2018-07-23T23:18:51.166Z,9.70
2018-07-23T23:21:20.287Z,10.20
2018-07-23T23:23:48.432Z,10.23
2018-07-23T23:26:16.960Z,10.10
2018-07-23T23:28:45.222Z,10.40
2018-07-23T23:31:13.391Z,9.73
2018-07-23T23:33:41.573Z,10.17
2018-07-23T23:36:09.716Z,10.33
2018-07-23T23:38:37.881Z,9.77
2018-07-23T23:41:06.059Z,10.30
2018-07-23T23:43:34.220Z,10.47
2018-07-23T23:46:02.410Z,10.63
2018-07-23T23:48:30.550Z,9.80
2018-07-23T23:50:58.723Z,10.40
2018-07-23T23:53:26.874Z,9.50
2018-07-23T23:55:55.031Z,11.33
2018-07-23T23:58:23.224Z,10.33
